KDWH

David Wayne Hooks Memorial Airport

Houston, Texas, USA
METAR KDWH 230053Z 01004KT 10SM SCT110 16/12 A3015 RMK AO2 SLP209 T01610117
Observed Flight Rules
Oct-23 @ 00:53 UTC (8 minutes ago) Visual Flight Rules
Wind Visibility Clouds
10° at 4 knots 10 miles
  • Scattered at 11,000' AGL
Temperatures Readings
Current 16°C / 61°F
Dewpoint 12°C / 54°F
Humidity 77%
Altimeter 30.15" Hg
Pressure 1020.9 hPa
Elevation 46
METAR KDWH 230053Z 01004KT 10SM SCT110 16/12 A3015 RMK AO2 SLP209 T01610117
Observed Flight Rules
Oct-23 @ 00:53 UTC
(8 minutes ago)
VFR
Wind Visibility
10° at 4 knots 10 miles
Clouds
  • Scattered at 11,000' AGL
Temperature Dewpoint
16°C / 61°F 12°C / 54°F
Humidity Altimeter Pressure
77% 30.15" Hg 1020.9 hPa